EGXZ

RAF Topcliffe Airport

Topcliffe, United Kingdom
METAR EGXZ 230750Z 32003KT 4000 HZ BKN028 M01/M02 Q1024 GRN
Observed Flight Rules
Feb-23 @ 07:50 UTC (29 minutes ago) Instrument Flight Rules
Wind Visibility Clouds Conditions
320° at 3 knots 4,007 meters
  • Broken at 2,800' AGL
  • Haze
Temperatures Readings
Current -1°C / 30°F
Dewpoint -2°C / 28°F
Humidity 93%
Altimeter 30.24" Hg
Pressure 1024 hPa
Elevation 28
METAR EGXZ 230750Z 32003KT 4000 HZ BKN028 M01/M02 Q1024 GRN
Observed Flight Rules
Feb-23 @ 07:50 UTC
(29 minutes ago)
IFR
Wind Visibility
320° at 3 knots 4,007 meters
Clouds
  • Broken at 2,800' AGL
Conditions
  • Haze
Temperature Dewpoint
-1°C / 30°F -2°C / 28°F
Humidity Altimeter Pressure
93% 30.24" Hg 1024 hPa